| Date | Time | Temp. (oF) | Dew Point (oF) | Rel. Hum. (%) | Press. (in.) | Wind Dir. | Wind Speed (mph) | Hourly Rainfall (in.) |
|
|---|---|---|---|---|---|---|---|---|---|
| 1 | 09/18 | 00:00 | 66 | 61 | 85 | 30.00 | ENE | 0 | 0.00 |
| 2 | 09/17 | 23:00 | 68 | 61 | 80 | 30.01 | SE | 0 | 0.00 |
| 3 | 09/17 | 22:00 | 69 | 61 | 76 | 30.02 | ESE | 0 | 0.00 |
| 4 | 09/17 | 21:00 | 70 | 60 | 73 | 30.03 | SE | 0 | 0.00 |
| 5 | 09/17 | 20:00 | 72 | 61 | 70 | 30.02 | SSE | 4 | 0.00 |
| 6 | 09/17 | 19:00 | 73 | 61 | 67 | 30.02 | ESE | 3 | 0.00 |
| 7 | 09/17 | 18:00 | 75 | 61 | 64 | 30.02 | SSE | 5 | 0.00 |
| 8 | 09/17 | 17:00 | 76 | 61 | 62 | 30.03 | SSE | 7 | 0.00 |
| 9 | 09/17 | 16:00 | 76 | 61 | 61 | 30.03 | SE | 4 | 0.00 |
| 10 | 09/17 | 15:00 | 76 | 61 | 61 | 30.05 | SSE | 6 | 0.00 |
| 11 | 09/17 | 14:00 | 77 | 60 | 58 | 30.07 | SSE | 4 | 0.00 |
| 12 | 09/17 | 13:00 | 73 | 59 | 63 | 30.10 | SE | 4 | 0.00 |
| 13 | 09/17 | 12:00 | 71 | 59 | 66 | 30.12 | SE | 6 | 0.00 |
| 14 | 09/17 | 11:00 | 69 | 59 | 71 | 30.14 | SSE | 4 | 0.00 |
| 15 | 09/17 | 10:00 | 66 | 59 | 79 | 30.14 | SSE | 4 | 0.00 |
| 16 | 09/17 | 09:00 | 64 | 58 | 83 | 30.15 | SE | 2 | 0.00 |
| 17 | 09/17 | 08:00 | 61 | 56 | 84 | 30.15 | ESE | 0 | 0.00 |
| 18 | 09/17 | 07:00 | 60 | 54 | 83 | 30.15 | NE | 0 | 0.00 |
| 19 | 09/17 | 06:00 | 60 | 54 | 83 | 30.15 | ENE | 2 | 0.00 |
| 20 | 09/17 | 05:00 | 59 | 53 | 81 | 30.15 | ESE | 0 | 0.00 |
| 21 | 09/17 | 04:00 | 60 | 53 | 79 | 30.14 | E | 4 | 0.00 |
| 22 | 09/17 | 03:00 | 61 | 54 | 78 | 30.16 | ESE | 5 | 0.00 |
| 23 | 09/17 | 02:00 | 61 | 53 | 77 | 30.17 | E | 2 | 0.00 |
| 24 | 09/17 | 01:00 | 62 | 53 | 75 | 30.17 | SE | 4 | 0.00 |